createdAt,value
2019-05-26T00:01:21.727Z,7.37
2019-05-26T00:03:50.312Z,7.30
2019-05-26T00:06:18.862Z,6.70
2019-05-26T00:08:47.426Z,7.03
2019-05-26T00:11:16.004Z,7.20
2019-05-26T00:13:44.643Z,7.33
2019-05-26T00:16:13.197Z,6.50
2019-05-26T00:18:41.815Z,6.67
2019-05-26T00:21:10.343Z,5.80
2019-05-26T00:23:38.928Z,6.77
2019-05-26T00:26:07.474Z,6.60
2019-05-26T00:28:36.062Z,7.33
2019-05-26T00:31:04.671Z,7.07
2019-05-26T00:33:33.299Z,7.30
2019-05-26T00:36:01.825Z,6.70
2019-05-26T00:38:30.358Z,6.50
2019-05-26T00:40:59.256Z,6.77
2019-05-26T00:43:27.801Z,7.50
2019-05-26T00:45:56.366Z,7.30
2019-05-26T00:48:24.870Z,7.50
2019-05-26T00:50:53.431Z,7.97
2019-05-26T00:53:21.909Z,7.47
2019-05-26T00:55:50.495Z,7.10
2019-05-26T00:58:19.033Z,8.03
2019-05-26T01:00:47.532Z,7.57
2019-05-26T01:03:16.020Z,7.47
2019-05-26T01:05:44.523Z,7.40
2019-05-26T01:08:13.101Z,6.60
2019-05-26T01:10:41.691Z,6.70
2019-05-26T01:13:10.179Z,7.03
2019-05-26T01:15:38.777Z,6.70
2019-05-26T01:18:07.419Z,6.70
2019-05-26T01:20:37.619Z,7.93
2019-05-26T01:23:06.115Z,7.70
2019-05-26T01:25:34.623Z,7.90
2019-05-26T01:28:03.270Z,7.60
2019-05-26T01:30:36.346Z,7.87
2019-05-26T01:33:05.624Z,7.90
2019-05-26T01:35:36.023Z,7.43
2019-05-26T01:38:04.696Z,7.30
2019-05-26T01:40:38.583Z,7.67
2019-05-26T01:43:07.312Z,8.03
2019-05-26T01:45:35.857Z,7.90
2019-05-26T01:48:05.277Z,9.10
2019-05-26T01:50:33.895Z,8.87
2019-05-26T01:53:02.472Z,8.60
2019-05-26T01:55:31.065Z,8.33
2019-05-26T01:57:59.644Z,8.17
2019-05-26T02:00:28.208Z,8.00
2019-05-26T02:02:56.718Z,8.23
2019-05-26T02:05:25.283Z,7.47
2019-05-26T02:07:53.833Z,7.40
2019-05-26T02:10:22.437Z,7.50
2019-05-26T02:12:50.904Z,7.37
2019-05-26T02:15:21.335Z,8.03
2019-05-26T02:17:49.896Z,7.03
2019-05-26T02:20:19.687Z,7.50
2019-05-26T02:22:48.170Z,6.80
2019-05-26T02:25:17.188Z,7.80
2019-05-26T02:27:45.676Z,6.97
2019-05-26T02:30:14.534Z,7.00
2019-05-26T02:32:43.079Z,6.23
2019-05-26T02:35:12.189Z,7.13
2019-05-26T02:37:40.705Z,7.47
2019-05-26T02:40:12.331Z,6.43
2019-05-26T02:42:40.786Z,6.60
2019-05-26T02:45:11.603Z,7.27
2019-05-26T02:47:40.195Z,6.40
2019-05-26T02:50:09.382Z,6.73
2019-05-26T02:52:37.940Z,7.17
2019-05-26T02:55:08.287Z,8.57
2019-05-26T02:57:36.829Z,7.03
2019-05-26T03:00:08.539Z,7.00
2019-05-26T03:02:37.175Z,7.73
2019-05-26T03:05:11.188Z,7.97
2019-05-26T03:07:42.927Z,7.47
2019-05-26T03:10:14.171Z,7.03
2019-05-26T03:12:43.169Z,8.43
2019-05-26T03:15:13.424Z,7.00
2019-05-26T03:17:42.706Z,8.47
2019-05-26T03:20:13.535Z,7.63
2019-05-26T03:22:42.970Z,7.63
2019-05-26T03:25:12.379Z,8.00
2019-05-26T03:27:41.383Z,8.00
2019-05-26T03:30:10.641Z,8.00
2019-05-26T03:32:39.449Z,8.27
2019-05-26T03:35:09.277Z,7.47
2019-05-26T03:37:37.848Z,8.27
2019-05-26T03:40:09.896Z,8.47
2019-05-26T03:42:38.478Z,8.00
2019-05-26T03:45:08.864Z,8.67
2019-05-26T03:47:37.510Z,8.57
2019-05-26T03:50:07.733Z,8.40
2019-05-26T03:52:36.301Z,8.00
2019-05-26T03:55:07.312Z,8.80
2019-05-26T03:57:35.867Z,8.83
2019-05-26T04:00:07.711Z,9.00
2019-05-26T04:02:36.352Z,7.50
2019-05-26T04:05:08.143Z,8.23
2019-05-26T04:07:36.719Z,8.10
2019-05-26T04:10:08.686Z,9.37
2019-05-26T04:12:37.258Z,8.93
2019-05-26T04:15:06.963Z,9.00
2019-05-26T04:17:35.531Z,8.00
2019-05-26T04:20:05.920Z,9.07
2019-05-26T04:22:34.485Z,8.93
2019-05-26T04:25:04.421Z,9.43
2019-05-26T04:27:32.997Z,9.87
2019-05-26T04:30:01.571Z,9.50
2019-05-26T04:32:30.132Z,9.70
2019-05-26T04:34:58.669Z,8.97
2019-05-26T04:37:27.273Z,9.30
2019-05-26T04:39:55.813Z,9.10
2019-05-26T04:42:24.406Z,9.73
2019-05-26T04:44:52.923Z,8.73
2019-05-26T04:47:21.487Z,10.03
2019-05-26T04:49:50.007Z,10.20
2019-05-26T04:52:18.579Z,9.10
2019-05-26T04:54:47.131Z,9.70
2019-05-26T04:57:15.647Z,9.93
2019-05-26T04:59:44.147Z,9.60
2019-05-26T05:02:12.705Z,9.57
2019-05-26T05:04:41.297Z,10.60
2019-05-26T05:07:09.847Z,11.00
2019-05-26T05:09:38.432Z,10.77
2019-05-26T05:12:07.041Z,10.50
2019-05-26T05:14:35.690Z,10.70
2019-05-26T05:17:04.228Z,11.10
2019-05-26T05:19:32.851Z,10.00
2019-05-26T05:22:01.403Z,10.30
2019-05-26T05:24:29.954Z,11.43
2019-05-26T05:26:58.527Z,10.47
2019-05-26T05:29:27.110Z,11.33
2019-05-26T05:31:55.699Z,11.27
2019-05-26T05:34:24.224Z,10.60
2019-05-26T05:36:52.722Z,11.00
2019-05-26T05:39:21.294Z,11.13
2019-05-26T05:41:49.782Z,10.73
2019-05-26T05:44:18.306Z,10.73
2019-05-26T05:46:46.875Z,9.93
2019-05-26T05:49:15.525Z,10.00
2019-05-26T05:51:44.094Z,10.33
2019-05-26T05:54:12.654Z,10.00
2019-05-26T05:56:41.177Z,9.17
2019-05-26T05:59:09.891Z,10.50
2019-05-26T06:01:38.433Z,10.50
2019-05-26T06:04:06.994Z,10.83
2019-05-26T06:06:35.558Z,9.77
2019-05-26T06:09:06.247Z,9.93
2019-05-26T06:11:34.861Z,9.43
2019-05-26T06:14:04.523Z,8.80
2019-05-26T06:16:33.064Z,8.87
2019-05-26T06:19:01.669Z,8.90
2019-05-26T06:21:30.220Z,8.50
2019-05-26T06:23:58.832Z,8.20
2019-05-26T06:26:27.471Z,8.00
2019-05-26T06:28:56.085Z,8.10
2019-05-26T06:31:24.838Z,6.73
2019-05-26T06:33:53.379Z,7.20
2019-05-26T06:36:22.005Z,5.90
2019-05-26T06:38:50.605Z,6.20
2019-05-26T06:41:32.272Z,4.67
2019-05-26T06:43:49.398Z,5.10
2019-05-26T06:46:17.931Z,4.43
2019-05-26T06:48:46.522Z,4.40
2019-05-26T06:51:15.106Z,4.47
2019-05-26T06:53:43.694Z,4.23
2019-05-26T06:56:12.319Z,4.60
2019-05-26T06:58:50.322Z,4.30
2019-05-26T07:01:18.962Z,4.37
2019-05-26T07:03:47.516Z,4.53
2019-05-26T07:06:16.056Z,3.70
2019-05-26T07:08:44.539Z,4.20
2019-05-26T07:11:13.119Z,3.70
2019-05-26T07:13:41.763Z,3.60
2019-05-26T07:16:10.323Z,4.20
2019-05-26T07:18:38.874Z,3.80
2019-05-26T07:21:07.466Z,3.57
2019-05-26T07:23:36.020Z,3.60
2019-05-26T07:26:04.650Z,3.50
2019-05-26T07:28:33.162Z,3.73
2019-05-26T07:31:01.767Z,3.00
2019-05-26T07:33:30.361Z,3.20
2019-05-26T07:35:58.885Z,2.80
2019-05-26T07:38:27.429Z,3.03
2019-05-26T07:40:56.013Z,2.80
2019-05-26T07:43:27.885Z,2.77
2019-05-26T07:45:55.042Z,2.40
2019-05-26T07:48:23.657Z,2.60
2019-05-26T07:50:52.294Z,2.90
2019-05-26T07:53:20.836Z,2.90
2019-05-26T07:55:49.716Z,2.37
2019-05-26T07:58:18.417Z,2.10
2019-05-26T08:00:47.039Z,3.03
2019-05-26T08:03:15.713Z,2.17
2019-05-26T08:05:44.338Z,2.23
2019-05-26T08:08:13.694Z,2.37
2019-05-26T08:10:42.642Z,2.03
2019-05-26T08:13:13.582Z,2.83
2019-05-26T08:15:42.725Z,2.53
2019-05-26T08:18:11.569Z,2.20
2019-05-26T08:20:41.870Z,2.50
2019-05-26T08:23:10.504Z,2.33
2019-05-26T08:25:41.992Z,2.53
2019-05-26T08:28:10.825Z,1.97
2019-05-26T08:30:39.441Z,2.20
2019-05-26T08:33:08.067Z,1.60
2019-05-26T08:35:36.690Z,2.07
2019-05-26T08:38:05.252Z,2.13
2019-05-26T08:40:33.826Z,2.53
2019-05-26T08:43:02.708Z,2.37
2019-05-26T08:45:31.443Z,2.10
2019-05-26T08:48:00.169Z,2.10
2019-05-26T08:50:28.775Z,1.90
2019-05-26T08:52:57.467Z,2.30
2019-05-26T08:55:26.119Z,2.23
2019-05-26T08:57:54.891Z,2.30
2019-05-26T09:00:23.765Z,2.30
2019-05-26T09:02:52.444Z,1.90
2019-05-26T09:05:21.936Z,2.30
2019-05-26T09:07:51.010Z,2.27
2019-05-26T09:10:20.086Z,1.80
2019-05-26T09:13:00.118Z,2.07
2019-05-26T09:15:20.566Z,2.10
2019-05-26T09:17:49.277Z,2.00
2019-05-26T09:20:18.586Z,2.67
2019-05-26T09:22:47.253Z,2.43
2019-05-26T09:25:16.522Z,2.10
2019-05-26T09:27:45.198Z,2.60
2019-05-26T09:30:14.080Z,2.47
2019-05-26T09:32:42.616Z,2.40
2019-05-26T09:35:12.126Z,2.27
2019-05-26T09:37:41.110Z,2.00
2019-05-26T09:40:10.541Z,2.63
2019-05-26T09:42:41.809Z,1.73
2019-05-26T09:45:10.675Z,2.80
2019-05-26T09:47:39.405Z,2.60
2019-05-26T09:50:08.523Z,2.10
2019-05-26T09:52:37.876Z,2.37
2019-05-26T09:55:07.923Z,2.87
2019-05-26T09:57:36.868Z,2.87
2019-05-26T10:00:09.683Z,2.67
2019-05-26T10:02:38.246Z,2.87
2019-05-26T10:05:08.134Z,2.73
2019-05-26T10:07:36.973Z,2.93
2019-05-26T10:10:07.568Z,3.27
2019-05-26T10:12:36.177Z,2.90
2019-05-26T10:15:06.627Z,3.30
2019-05-26T10:17:36.595Z,2.53
2019-05-26T10:20:07.546Z,3.00
2019-05-26T10:22:36.257Z,3.10
2019-05-26T10:25:06.840Z,2.97
2019-05-26T10:27:36.001Z,3.10
2019-05-26T10:30:11.359Z,3.50
2019-05-26T10:32:40.130Z,4.20
2019-05-26T10:35:08.849Z,3.20
2019-05-26T10:37:37.389Z,3.47
2019-05-26T10:40:07.582Z,3.53
2019-05-26T10:42:36.057Z,3.70
2019-05-26T10:45:08.359Z,3.70
2019-05-26T10:47:36.978Z,4.00
2019-05-26T10:50:08.577Z,3.83
2019-05-26T10:52:37.337Z,3.83
2019-05-26T10:55:08.885Z,3.53
2019-05-26T10:57:37.574Z,3.00
2019-05-26T11:00:08.498Z,2.87
2019-05-26T11:02:37.117Z,3.80
2019-05-26T11:05:07.072Z,3.10
2019-05-26T11:07:35.636Z,3.10
2019-05-26T11:10:06.586Z,2.80
2019-05-26T11:12:35.255Z,3.87
2019-05-26T11:15:08.017Z,3.50
2019-05-26T11:17:36.659Z,2.53
2019-05-26T11:20:10.435Z,3.27
2019-05-26T11:22:38.985Z,2.90
2019-05-26T11:25:08.390Z,3.00
2019-05-26T11:27:36.991Z,2.40
2019-05-26T11:30:13.589Z,2.67
2019-05-26T11:32:42.164Z,2.93
2019-05-26T11:35:10.923Z,2.60
2019-05-26T11:37:39.550Z,2.70
2019-05-26T11:40:08.380Z,2.80
2019-05-26T11:42:37.041Z,2.40
2019-05-26T11:45:09.435Z,3.63
2019-05-26T11:47:38.121Z,3.33
2019-05-26T11:50:08.540Z,2.10
2019-05-26T11:52:37.125Z,2.57
2019-05-26T11:55:07.921Z,3.20
2019-05-26T11:57:37.350Z,3.13
2019-05-26T12:00:08.100Z,2.90
2019-05-26T12:02:37.183Z,2.60
2019-05-26T12:05:09.274Z,2.50
2019-05-26T12:07:37.913Z,2.80
2019-05-26T12:10:07.771Z,2.70
2019-05-26T12:12:36.407Z,2.60
2019-05-26T12:15:09.386Z,2.20
2019-05-26T12:17:37.952Z,2.30
2019-05-26T12:20:07.205Z,3.03
2019-05-26T12:22:35.817Z,2.87
2019-05-26T12:25:07.464Z,2.77
2019-05-26T12:27:36.399Z,2.70
2019-05-26T12:30:08.132Z,3.20
2019-05-26T12:32:36.772Z,3.07
2019-05-26T12:35:07.428Z,3.27
2019-05-26T12:37:36.090Z,2.93
2019-05-26T12:40:06.763Z,2.50
2019-05-26T12:42:35.396Z,3.17
2019-05-26T12:45:06.594Z,3.17
2019-05-26T12:47:35.193Z,3.47
2019-05-26T12:50:05.930Z,2.97
2019-05-26T12:52:34.472Z,2.60
2019-05-26T12:55:03.109Z,2.67
2019-05-26T12:57:31.631Z,2.70
2019-05-26T13:00:06.512Z,3.30
2019-05-26T13:02:35.006Z,2.53
2019-05-26T13:05:08.439Z,2.60
2019-05-26T13:07:37.215Z,2.87
2019-05-26T13:10:07.832Z,2.40
2019-05-26T13:12:36.500Z,2.20
2019-05-26T13:15:10.384Z,2.70
2019-05-26T13:17:39.082Z,2.23
2019-05-26T13:20:08.995Z,2.60
2019-05-26T13:22:38.112Z,2.67
2019-05-26T13:25:08.091Z,3.00
2019-05-26T13:27:36.707Z,2.87
2019-05-26T13:30:11.301Z,2.40
2019-05-26T13:32:39.975Z,2.70
2019-05-26T13:35:09.373Z,2.33
2019-05-26T13:37:37.976Z,2.60
2019-05-26T13:40:08.798Z,1.83
2019-05-26T13:42:37.445Z,2.60
2019-05-26T13:45:21.054Z,2.20
2019-05-26T13:47:38.253Z,1.97
2019-05-26T13:50:07.979Z,2.50
2019-05-26T13:52:36.576Z,2.30
2019-05-26T13:55:09.352Z,2.10
2019-05-26T13:57:38.029Z,1.93
2019-05-26T14:00:12.073Z,1.23
2019-05-26T14:02:40.843Z,1.70
2019-05-26T14:05:09.916Z,1.80
2019-05-26T14:07:38.632Z,1.40
2019-05-26T14:10:08.188Z,1.23
2019-05-26T14:12:36.888Z,1.70
2019-05-26T14:15:10.970Z,1.90
2019-05-26T14:17:39.826Z,1.90
2019-05-26T14:20:09.706Z,1.60
2019-05-26T14:22:38.304Z,1.43
2019-05-26T14:25:08.230Z,1.50
2019-05-26T14:27:36.832Z,1.57
2019-05-26T14:30:06.777Z,1.70
2019-05-26T14:32:35.393Z,1.63
2019-05-26T14:35:05.629Z,1.60
2019-05-26T14:37:34.213Z,2.20
2019-05-26T14:40:03.023Z,1.83
2019-05-26T14:42:31.600Z,1.77
2019-05-26T14:45:03.698Z,1.60
2019-05-26T14:47:30.355Z,1.30
2019-05-26T14:49:58.937Z,1.37
2019-05-26T14:52:27.477Z,1.53
2019-05-26T14:54:56.104Z,1.37
2019-05-26T14:57:24.696Z,2.07
2019-05-26T14:59:53.298Z,1.43
2019-05-26T15:02:21.870Z,1.50
2019-05-26T15:04:50.441Z,1.40
2019-05-26T15:07:19.012Z,1.47
2019-05-26T15:09:47.671Z,2.00
2019-05-26T15:12:16.322Z,1.53
2019-05-26T15:14:44.905Z,1.53
2019-05-26T15:17:13.482Z,1.90
2019-05-26T15:19:42.054Z,1.80
2019-05-26T15:22:10.677Z,1.70
2019-05-26T15:24:39.242Z,1.57
2019-05-26T15:27:07.901Z,1.90
2019-05-26T15:29:36.478Z,1.90
2019-05-26T15:32:05.258Z,1.40
2019-05-26T15:34:33.883Z,1.60
2019-05-26T15:37:02.475Z,1.90
2019-05-26T15:39:31.146Z,1.63
2019-05-26T15:41:59.714Z,2.30
2019-05-26T15:44:28.390Z,1.93
2019-05-26T15:46:57.072Z,1.57
2019-05-26T15:49:25.667Z,1.67
2019-05-26T15:51:54.286Z,2.00
2019-05-26T15:54:22.865Z,1.70
2019-05-26T15:56:51.497Z,1.70
2019-05-26T15:59:20.123Z,1.70
2019-05-26T16:01:48.731Z,1.80
2019-05-26T16:04:17.332Z,1.70
2019-05-26T16:06:45.912Z,2.10
2019-05-26T16:09:14.587Z,2.40
2019-05-26T16:11:43.746Z,1.67
2019-05-26T16:14:12.476Z,1.70
2019-05-26T16:16:41.957Z,1.80
2019-05-26T16:19:10.763Z,1.90
2019-05-26T16:21:39.591Z,2.00
2019-05-26T16:24:08.220Z,2.07
2019-05-26T16:26:36.832Z,1.47
2019-05-26T16:29:06.048Z,2.07
2019-05-26T16:31:34.689Z,2.27
2019-05-26T16:34:03.284Z,1.73
2019-05-26T16:36:32.138Z,1.97
2019-05-26T16:39:00.773Z,2.00
2019-05-26T16:41:29.364Z,2.03
2019-05-26T16:43:58.037Z,1.50
2019-05-26T16:46:26.627Z,2.07
2019-05-26T16:48:55.297Z,1.60
2019-05-26T16:51:23.868Z,1.50
2019-05-26T16:53:52.483Z,1.77
2019-05-26T16:56:21.161Z,1.40
2019-05-26T16:58:49.790Z,1.83
2019-05-26T17:01:19.464Z,1.63
2019-05-26T17:03:48.105Z,1.67
2019-05-26T17:06:16.683Z,1.87
2019-05-26T17:08:45.303Z,1.50
2019-05-26T17:11:13.897Z,1.60
2019-05-26T17:13:42.658Z,1.60
2019-05-26T17:16:16.924Z,1.87
2019-05-26T17:18:51.431Z,1.93
2019-05-26T17:21:20.060Z,1.60
2019-05-26T17:23:48.702Z,1.60
2019-05-26T17:26:17.280Z,2.03
2019-05-26T17:28:48.359Z,1.63
2019-05-26T17:31:17.178Z,1.33
2019-05-26T17:33:45.800Z,1.70
2019-05-26T17:36:14.386Z,1.40
2019-05-26T17:38:42.968Z,1.47
2019-05-26T17:41:11.819Z,1.47
2019-05-26T17:43:40.637Z,1.73
2019-05-26T17:46:09.374Z,1.40
2019-05-26T17:48:39.187Z,1.60
2019-05-26T17:51:07.941Z,1.40
2019-05-26T17:53:36.551Z,1.30
2019-05-26T17:56:06.485Z,1.83
2019-05-26T17:58:35.116Z,1.20
2019-05-26T18:01:03.861Z,1.53
2019-05-26T18:03:32.465Z,1.60
2019-05-26T18:06:02.731Z,1.87
2019-05-26T18:08:31.421Z,1.73
2019-05-26T18:11:00.252Z,2.10
2019-05-26T18:13:29.271Z,2.93
2019-05-26T18:16:01.223Z,4.30
2019-05-26T18:18:30.286Z,1.70
2019-05-26T18:20:58.990Z,2.00
2019-05-26T18:23:27.593Z,1.77
2019-05-26T18:25:58.757Z,1.70
2019-05-26T18:28:29.000Z,1.63
2019-05-26T18:30:57.654Z,2.00
2019-05-26T18:33:26.228Z,1.70
2019-05-26T18:35:56.020Z,1.90
2019-05-26T18:38:25.609Z,1.70
2019-05-26T18:40:57.510Z,1.50
2019-05-26T18:43:28.146Z,1.47
2019-05-26T18:45:58.346Z,1.20
2019-05-26T18:48:28.465Z,1.87
2019-05-26T18:50:57.142Z,1.70
2019-05-26T18:53:29.672Z,1.77
2019-05-26T18:55:57.511Z,1.80
2019-05-26T18:58:26.279Z,2.37
2019-05-26T19:00:56.138Z,1.60
2019-05-26T19:03:26.361Z,1.90
2019-05-26T19:05:55.158Z,1.60
2019-05-26T19:08:26.238Z,2.90
2019-05-26T19:10:54.891Z,2.67
2019-05-26T19:13:24.565Z,1.40
2019-05-26T19:15:54.907Z,1.93
2019-05-26T19:18:23.566Z,1.53
2019-05-26T19:20:53.944Z,1.93
2019-05-26T19:23:22.635Z,1.50
2019-05-26T19:25:51.379Z,1.80
2019-05-26T19:28:20.082Z,1.40
2019-05-26T19:30:48.726Z,1.70
2019-05-26T19:33:17.354Z,1.50
2019-05-26T19:35:46.203Z,1.80
2019-05-26T19:38:15.855Z,2.23
2019-05-26T19:40:46.235Z,1.77
2019-05-26T19:43:15.129Z,2.63
2019-05-26T19:45:43.777Z,2.30
2019-05-26T19:48:12.524Z,2.00
2019-05-26T19:50:44.156Z,2.20
2019-05-26T19:53:12.921Z,2.00
2019-05-26T19:55:42.767Z,2.03
2019-05-26T19:58:12.509Z,2.10
2019-05-26T20:00:41.264Z,2.30
2019-05-26T20:03:09.903Z,2.30
2019-05-26T20:05:40.951Z,2.40
2019-05-26T20:08:09.951Z,1.87
2019-05-26T20:10:40.253Z,2.50
2019-05-26T20:13:08.875Z,2.73
2019-05-26T20:15:37.587Z,2.00
2019-05-26T20:18:06.586Z,2.27
2019-05-26T20:20:35.675Z,2.30
2019-05-26T20:23:04.293Z,2.87
2019-05-26T20:25:32.965Z,2.30
2019-05-26T20:28:01.585Z,2.23
2019-05-26T20:30:30.170Z,2.23
2019-05-26T20:32:59.956Z,2.33
2019-05-26T20:35:28.558Z,2.10
2019-05-26T20:37:57.677Z,2.37
2019-05-26T20:40:26.646Z,2.43
2019-05-26T20:42:55.289Z,2.17
2019-05-26T20:45:23.884Z,4.90
2019-05-26T20:47:52.674Z,3.23
2019-05-26T20:50:29.346Z,2.47
2019-05-26T20:52:53.249Z,2.60
2019-05-26T20:55:23.889Z,2.83
2019-05-26T20:57:55.295Z,2.50
2019-05-26T21:00:25.575Z,2.50
2019-05-26T21:02:55.589Z,2.70
2019-05-26T21:05:24.119Z,2.17
2019-05-26T21:07:52.780Z,2.23
2019-05-26T21:10:21.457Z,2.20
2019-05-26T21:12:50.036Z,3.33
2019-05-26T21:15:18.886Z,4.73
2019-05-26T21:17:47.482Z,3.40
2019-05-26T21:20:16.397Z,2.90
2019-05-26T21:22:44.957Z,2.53
2019-05-26T21:25:13.984Z,1.93
2019-05-26T21:27:42.550Z,2.30
2019-05-26T21:30:11.568Z,2.60
2019-05-26T21:32:40.127Z,3.27
2019-05-26T21:35:08.874Z,2.83
2019-05-26T21:37:37.431Z,2.47
2019-05-26T21:40:07.623Z,3.30
2019-05-26T21:42:36.121Z,2.90
2019-05-26T21:45:06.677Z,2.53
2019-05-26T21:47:35.273Z,3.50
2019-05-26T21:50:05.123Z,3.07
2019-05-26T21:52:33.646Z,3.10
2019-05-26T21:55:02.209Z,3.00
2019-05-26T21:57:30.841Z,3.00
2019-05-26T21:59:59.399Z,3.17
2019-05-26T22:02:28.132Z,3.07
2019-05-26T22:04:56.701Z,3.10
2019-05-26T22:07:25.282Z,3.50
2019-05-26T22:09:53.871Z,4.13
2019-05-26T22:12:22.459Z,3.60
2019-05-26T22:14:50.946Z,3.20
2019-05-26T22:17:19.451Z,3.43
2019-05-26T22:19:48.011Z,3.10
2019-05-26T22:22:16.589Z,3.23
2019-05-26T22:24:45.195Z,3.10
2019-05-26T22:27:13.715Z,3.43
2019-05-26T22:29:42.352Z,3.00
2019-05-26T22:32:10.924Z,3.20
2019-05-26T22:34:39.473Z,3.07
2019-05-26T22:37:08.057Z,3.13
2019-05-26T22:39:36.626Z,3.10
2019-05-26T22:42:05.208Z,3.57
2019-05-26T22:44:33.760Z,3.23
2019-05-26T22:47:02.235Z,3.60
2019-05-26T22:49:30.765Z,3.53
2019-05-26T22:51:59.358Z,3.20
2019-05-26T22:54:27.893Z,3.50
2019-05-26T22:56:56.454Z,3.27
2019-05-26T22:59:24.980Z,3.07
2019-05-26T23:01:53.520Z,3.17
2019-05-26T23:04:22.124Z,3.90
2019-05-26T23:06:50.675Z,3.80
2019-05-26T23:09:19.394Z,3.37
2019-05-26T23:11:47.933Z,3.87
2019-05-26T23:14:16.481Z,4.10
2019-05-26T23:16:45.027Z,4.00
2019-05-26T23:19:19.472Z,3.77
2019-05-26T23:21:43.824Z,3.43
2019-05-26T23:24:12.422Z,3.83
2019-05-26T23:26:40.958Z,3.93
2019-05-26T23:29:09.546Z,3.70
2019-05-26T23:31:38.124Z,4.00
2019-05-26T23:34:06.618Z,3.60
2019-05-26T23:36:35.276Z,3.80
2019-05-26T23:39:04.911Z,3.43
2019-05-26T23:41:33.494Z,4.40
2019-05-26T23:44:02.073Z,3.47
2019-05-26T23:46:30.633Z,4.03
2019-05-26T23:48:59.116Z,3.93
2019-05-26T23:51:27.696Z,3.30
2019-05-26T23:53:57.918Z,3.50
2019-05-26T23:56:26.485Z,3.47
2019-05-26T23:58:54.959Z,3.20
